createdAt,value
2022-12-27T00:00:21.046Z,4.45
2022-12-27T00:02:53.520Z,4.50
2022-12-27T00:05:25.823Z,4.47
2022-12-27T00:07:58.922Z,4.47
2022-12-27T00:10:33.069Z,4.33
2022-12-27T00:13:05.588Z,4.49
2022-12-27T00:15:37.898Z,4.43
2022-12-27T00:18:10.260Z,4.40
2022-12-27T00:20:42.930Z,4.43
2022-12-27T00:23:15.955Z,4.40
2022-12-27T00:25:48.238Z,4.42
2022-12-27T00:28:20.633Z,4.33
2022-12-27T00:30:54.502Z,4.30
2022-12-27T00:33:28.715Z,4.36
2022-12-27T00:36:03.450Z,4.32
2022-12-27T00:38:36.494Z,4.36
2022-12-27T00:41:09.080Z,4.28
2022-12-27T00:43:41.470Z,4.38
2022-12-27T00:46:14.248Z,4.39
2022-12-27T00:48:46.925Z,4.41
2022-12-27T00:51:21.536Z,4.46
2022-12-27T00:53:55.174Z,4.41
2022-12-27T00:56:29.945Z,4.43
2022-12-27T00:59:04.101Z,4.41
2022-12-27T01:01:36.855Z,4.47
2022-12-27T01:04:12.804Z,4.37
2022-12-27T01:06:45.116Z,4.41
2022-12-27T01:09:18.119Z,4.47
2022-12-27T01:11:50.435Z,4.47
2022-12-27T01:14:22.846Z,4.49
2022-12-27T01:16:55.157Z,4.52
2022-12-27T01:19:27.592Z,4.55
2022-12-27T01:22:00.050Z,4.53
2022-12-27T01:24:34.151Z,4.47
2022-12-27T01:27:06.455Z,4.47
2022-12-27T01:29:38.893Z,4.45
2022-12-27T01:32:11.198Z,4.37
2022-12-27T01:34:43.555Z,4.38
2022-12-27T01:37:15.823Z,4.37
2022-12-27T01:39:48.850Z,4.40
2022-12-27T01:42:39.382Z,4.44
2022-12-27T01:45:14.956Z,4.43
2022-12-27T01:47:53.118Z,4.28
2022-12-27T01:50:31.727Z,4.30
2022-12-27T01:53:09.083Z,4.28
2022-12-27T01:55:50.107Z,4.26
2022-12-27T01:58:26.526Z,4.22
2022-12-27T02:00:59.312Z,4.21
2022-12-27T02:03:34.658Z,4.21
2022-12-27T02:06:09.425Z,4.23
2022-12-27T02:08:52.651Z,4.15
2022-12-27T02:11:48.007Z,4.14
2022-12-27T02:14:27.663Z,4.17
2022-12-27T02:17:04.848Z,4.16
2022-12-27T02:19:51.988Z,4.12
2022-12-27T02:23:23.486Z,4.04
2022-12-27T02:26:27.618Z,4.15
2022-12-27T02:29:11.118Z,4.04
2022-12-27T02:31:51.322Z,4.08
2022-12-27T02:34:25.932Z,4.04
2022-12-27T02:37:03.656Z,4.01
2022-12-27T02:39:39.709Z,3.94
2022-12-27T02:42:31.472Z,3.87
2022-12-27T02:45:47.029Z,3.82
2022-12-27T02:48:37.708Z,3.74
2022-12-27T02:51:49.279Z,3.61
2022-12-27T02:54:39.417Z,3.49
2022-12-27T02:57:31.367Z,3.47
2022-12-27T03:00:27.319Z,3.39
2022-12-27T03:03:30.539Z,3.41
2022-12-27T03:06:42.038Z,3.33
2022-12-27T03:10:20.539Z,3.27
2022-12-27T03:13:17.538Z,3.11
2022-12-27T03:16:08.065Z,3.08
2022-12-27T03:19:08.150Z,3.04
2022-12-27T03:22:17.607Z,3.09
2022-12-27T03:25:08.781Z,3.06
2022-12-27T03:27:43.141Z,2.94
2022-12-27T03:30:36.048Z,2.87
2022-12-27T03:33:15.221Z,2.84
2022-12-27T03:36:07.172Z,2.73
2022-12-27T03:38:47.379Z,2.70
2022-12-27T03:41:44.718Z,2.54
2022-12-27T03:44:26.225Z,2.40
2022-12-27T03:46:59.847Z,2.50
2022-12-27T03:49:39.525Z,2.51
2022-12-27T03:52:17.008Z,2.52
2022-12-27T03:54:51.706Z,2.52
2022-12-27T03:57:26.247Z,2.52
2022-12-27T03:59:59.815Z,2.52
2022-12-27T04:02:32.295Z,2.39
2022-12-27T04:05:06.319Z,2.25
2022-12-27T04:07:38.705Z,2.12
2022-12-27T04:10:30.669Z,2.03
2022-12-27T04:13:21.009Z,2.04
2022-12-27T04:16:11.530Z,2.08
2022-12-27T04:19:02.221Z,1.99
2022-12-27T04:21:53.740Z,2.07
2022-12-27T04:24:44.325Z,2.11
2022-12-27T04:27:34.777Z,2.11
2022-12-27T04:30:26.724Z,2.16
2022-12-27T04:33:17.285Z,2.11
2022-12-27T04:35:50.164Z,2.08
2022-12-27T04:38:23.168Z,2.10
2022-12-27T04:41:13.689Z,2.17
2022-12-27T04:44:04.299Z,2.21
2022-12-27T04:46:54.796Z,2.09
2022-12-27T04:49:45.937Z,2.11
2022-12-27T04:52:39.121Z,2.14
2022-12-27T04:55:17.880Z,2.08
2022-12-27T04:57:51.177Z,2.07
2022-12-27T05:00:58.491Z,2.12
2022-12-27T05:03:33.232Z,2.13
2022-12-27T05:06:06.721Z,2.12
2022-12-27T05:08:57.324Z,2.12
2022-12-27T05:11:48.714Z,2.12
2022-12-27T05:14:21.014Z,2.07
2022-12-27T05:16:53.341Z,2.06
2022-12-27T05:19:25.719Z,2.06
2022-12-27T05:22:16.095Z,2.11
2022-12-27T05:25:06.985Z,2.06
2022-12-27T05:27:40.052Z,2.13
2022-12-27T05:30:12.603Z,2.11
2022-12-27T05:32:44.925Z,2.12
2022-12-27T05:35:17.253Z,2.14
2022-12-27T05:37:54.727Z,2.15
2022-12-27T05:40:27.697Z,2.07
2022-12-27T05:43:01.426Z,2.12
2022-12-27T05:45:33.911Z,2.13
2022-12-27T05:48:06.292Z,2.13
2022-12-27T05:50:38.665Z,2.13
2022-12-27T05:53:17.792Z,2.07
2022-12-27T05:55:54.315Z,2.03
2022-12-27T05:58:28.175Z,2.00
2022-12-27T06:01:01.336Z,1.96
2022-12-27T06:03:33.701Z,1.96
2022-12-27T06:06:08.105Z,1.80
2022-12-27T06:08:41.040Z,1.63
2022-12-27T06:11:15.926Z,1.66
2022-12-27T06:13:51.298Z,1.70
2022-12-27T06:16:23.788Z,1.54
2022-12-27T06:18:56.158Z,1.60
2022-12-27T06:21:28.580Z,1.53
2022-12-27T06:24:00.949Z,1.56
2022-12-27T06:26:33.397Z,1.50
2022-12-27T06:29:06.574Z,1.45
2022-12-27T06:31:39.240Z,1.53
2022-12-27T06:34:11.591Z,1.56
2022-12-27T06:36:49.188Z,1.62
2022-12-27T06:39:21.731Z,1.68
2022-12-27T06:41:55.558Z,1.70
2022-12-27T06:44:28.601Z,1.68
2022-12-27T06:47:01.517Z,1.66
2022-12-27T06:49:33.911Z,1.71
2022-12-27T06:52:06.265Z,1.58
2022-12-27T06:54:38.627Z,1.59
2022-12-27T06:57:10.993Z,1.57
2022-12-27T06:59:46.937Z,1.66
2022-12-27T07:02:22.014Z,1.61
2022-12-27T07:04:54.399Z,1.63
2022-12-27T07:07:26.801Z,1.72
2022-12-27T07:09:59.168Z,1.80
2022-12-27T07:12:36.505Z,1.84
2022-12-27T07:15:10.334Z,1.93
2022-12-27T07:17:42.739Z,2.05
2022-12-27T07:20:15.110Z,2.15
2022-12-27T07:22:47.463Z,2.26
2022-12-27T07:25:19.789Z,2.32
2022-12-27T07:27:52.173Z,2.48
2022-12-27T07:30:25.323Z,2.59
2022-12-27T07:32:57.683Z,2.64
2022-12-27T07:35:30.002Z,2.85
2022-12-27T07:38:02.406Z,3.03
2022-12-27T07:40:36.302Z,3.19
2022-12-27T07:43:08.664Z,3.38
2022-12-27T07:45:41.659Z,3.48
2022-12-27T07:48:14.101Z,3.56
2022-12-27T07:50:54.321Z,3.64
2022-12-27T07:53:26.706Z,3.83
2022-12-27T07:55:59.188Z,3.87
2022-12-27T07:58:35.964Z,4.05
2022-12-27T08:01:10.441Z,4.19
2022-12-27T08:03:43.219Z,4.29
2022-12-27T08:06:21.840Z,4.39
2022-12-27T08:08:55.839Z,4.52
2022-12-27T08:11:29.432Z,4.66
2022-12-27T08:14:01.820Z,4.76
2022-12-27T08:16:34.864Z,4.81
2022-12-27T08:19:08.711Z,4.91
2022-12-27T08:21:41.169Z,5.01
2022-12-27T08:24:13.602Z,5.12
2022-12-27T08:26:45.925Z,5.23
2022-12-27T08:29:18.383Z,5.35
2022-12-27T08:31:51.444Z,5.47
2022-12-27T08:34:23.828Z,5.60
2022-12-27T08:36:56.694Z,5.67
2022-12-27T08:39:29.694Z,5.79
2022-12-27T08:42:02.050Z,5.87
2022-12-27T08:44:35.012Z,5.96
2022-12-27T08:47:07.952Z,6.11
2022-12-27T08:49:40.339Z,6.28
2022-12-27T08:52:12.681Z,6.46
2022-12-27T08:54:45.090Z,6.61
2022-12-27T08:57:17.406Z,6.82
2022-12-27T08:59:49.910Z,7.05
2022-12-27T09:02:22.933Z,7.21
2022-12-27T09:04:55.429Z,7.43
2022-12-27T09:07:27.739Z,7.66
2022-12-27T09:10:00.116Z,7.81
2022-12-27T09:12:33.057Z,8.03
2022-12-27T09:15:06.705Z,8.22
2022-12-27T09:17:40.458Z,8.49
2022-12-27T09:20:12.863Z,8.76
2022-12-27T09:22:45.215Z,8.98
2022-12-27T09:25:17.767Z,9.28
2022-12-27T09:27:50.159Z,9.56
2022-12-27T09:30:22.598Z,9.80
2022-12-27T09:32:57.578Z,10.06
2022-12-27T09:35:30.225Z,10.29
2022-12-27T09:38:04.067Z,10.59
2022-12-27T09:40:37.495Z,10.81
2022-12-27T09:43:22.333Z,11.04
2022-12-27T09:45:59.262Z,11.24
2022-12-27T09:48:35.707Z,11.45
2022-12-27T09:51:15.268Z,11.55
2022-12-27T09:53:57.240Z,11.69
2022-12-27T09:56:54.496Z,11.65
2022-12-27T09:59:31.069Z,12.01
2022-12-27T10:02:08.549Z,12.17
2022-12-27T10:05:18.073Z,12.36
2022-12-27T10:07:45.024Z,12.53
2022-12-27T10:10:26.351Z,12.62
2022-12-27T10:13:21.326Z,12.77
2022-12-27T10:16:09.122Z,13.02
2022-12-27T10:18:54.308Z,13.08
2022-12-27T10:21:29.721Z,13.08
2022-12-27T10:24:12.672Z,13.15
2022-12-27T10:26:44.971Z,13.38
2022-12-27T10:29:21.492Z,13.48
2022-12-27T10:31:53.915Z,13.51
2022-12-27T10:34:26.456Z,13.63
2022-12-27T10:36:59.475Z,13.74
2022-12-27T10:39:35.655Z,13.91
2022-12-27T10:42:15.146Z,14.08
2022-12-27T10:44:47.631Z,13.93
2022-12-27T10:47:25.529Z,14.13
2022-12-27T10:50:08.302Z,14.10
2022-12-27T10:52:43.523Z,14.06
2022-12-27T10:55:33.294Z,14.12
2022-12-27T10:58:36.807Z,14.16
2022-12-27T11:01:16.174Z,14.45
2022-12-27T11:03:48.886Z,14.59
2022-12-27T11:06:24.622Z,14.59
2022-12-27T11:08:57.581Z,14.30
2022-12-27T11:11:30.521Z,14.17
2022-12-27T11:14:12.464Z,13.95
2022-12-27T11:16:45.648Z,13.91
2022-12-27T11:19:23.420Z,14.01
2022-12-27T11:21:56.694Z,14.13
2022-12-27T11:24:30.345Z,13.90
2022-12-27T11:27:03.627Z,14.07
2022-12-27T11:29:37.191Z,13.87
2022-12-27T11:32:09.883Z,13.70
2022-12-27T11:34:48.308Z,13.83
2022-12-27T11:37:24.291Z,14.09
2022-12-27T11:40:13.284Z,14.20
2022-12-27T11:42:51.014Z,14.17
2022-12-27T11:45:28.864Z,13.90
2022-12-27T11:48:07.201Z,14.14
2022-12-27T11:51:03.764Z,13.85
2022-12-27T11:54:05.297Z,13.52
2022-12-27T11:56:40.828Z,13.32
2022-12-27T11:59:34.486Z,13.45
2022-12-27T12:02:28.451Z,13.43
2022-12-27T12:05:27.257Z,13.39
2022-12-27T12:08:26.902Z,13.06
2022-12-27T12:11:10.185Z,12.97
2022-12-27T12:14:00.303Z,13.13
2022-12-27T12:17:11.007Z,12.98
2022-12-27T12:20:04.150Z,12.92
2022-12-27T12:22:50.496Z,12.80
2022-12-27T12:25:49.988Z,12.57
2022-12-27T12:28:59.108Z,12.42
2022-12-27T12:32:00.566Z,12.41
2022-12-27T12:35:05.584Z,12.45
2022-12-27T12:37:57.055Z,12.40
2022-12-27T12:40:51.481Z,12.42
2022-12-27T12:43:44.842Z,12.51
2022-12-27T12:46:27.153Z,12.38
2022-12-27T12:49:18.205Z,12.30
2022-12-27T12:52:03.563Z,12.30
2022-12-27T12:54:54.082Z,12.40
2022-12-27T12:57:41.547Z,12.44
2022-12-27T13:00:36.895Z,12.39
2022-12-27T13:03:51.689Z,12.44
2022-12-27T13:06:45.093Z,12.48
2022-12-27T13:09:29.177Z,12.42
2022-12-27T13:12:08.747Z,12.40
2022-12-27T13:14:55.483Z,12.43
2022-12-27T13:17:38.572Z,12.18
2022-12-27T13:20:32.114Z,12.02
2022-12-27T13:23:17.433Z,11.96
2022-12-27T13:25:58.687Z,11.88
2022-12-27T13:28:42.297Z,11.86
2022-12-27T13:31:29.426Z,11.67
2022-12-27T13:34:20.006Z,11.49
2022-12-27T13:37:09.928Z,11.40
2022-12-27T13:39:57.323Z,11.51
2022-12-27T13:42:54.929Z,11.55
2022-12-27T13:45:44.090Z,11.53
2022-12-27T13:48:39.939Z,11.49
2022-12-27T13:51:36.469Z,11.17
2022-12-27T13:54:32.149Z,11.23
2022-12-27T13:57:25.520Z,11.24
2022-12-27T14:00:09.608Z,11.18
2022-12-27T14:03:21.618Z,10.85
2022-12-27T14:06:17.866Z,10.77
2022-12-27T14:09:29.119Z,10.95
2022-12-27T14:12:26.193Z,10.94
2022-12-27T14:15:02.846Z,10.72
2022-12-27T14:17:43.126Z,10.85
2022-12-27T14:20:30.704Z,10.97
2022-12-27T14:23:21.607Z,11.03
2022-12-27T14:26:40.253Z,11.07
2022-12-27T14:30:02.358Z,11.08
2022-12-27T14:33:18.099Z,11.08
2022-12-27T14:36:11.185Z,10.93
2022-12-27T14:39:19.103Z,10.76
2022-12-27T14:42:17.131Z,10.69
2022-12-27T14:45:33.379Z,10.73
2022-12-27T14:48:39.007Z,10.69
2022-12-27T14:54:58.321Z,10.48
2022-12-27T14:57:38.826Z,10.43
2022-12-27T15:00:15.344Z,10.30
2022-12-27T15:03:13.692Z,10.03
2022-12-27T15:05:57.756Z,10.20
2022-12-27T15:08:45.538Z,10.28
2022-12-27T15:11:35.168Z,10.31
2022-12-27T15:14:22.131Z,10.14
2022-12-27T15:17:08.353Z,9.88
2022-12-27T15:20:09.741Z,9.96
2022-12-27T15:22:55.974Z,9.93
2022-12-27T15:25:43.795Z,10.01
2022-12-27T15:28:22.980Z,9.94
2022-12-27T15:31:03.407Z,9.88
2022-12-27T15:33:46.350Z,9.91
2022-12-27T15:36:35.176Z,9.88
2022-12-27T15:39:47.972Z,9.89
2022-12-27T15:42:52.657Z,9.83
2022-12-27T15:45:39.940Z,9.59
2022-12-27T15:48:57.843Z,9.59
2022-12-27T15:51:36.135Z,9.57
2022-12-27T15:54:36.998Z,9.53
2022-12-27T15:57:31.249Z,9.34
2022-12-27T16:00:15.719Z,9.38
2022-12-27T16:02:53.636Z,9.48
2022-12-27T16:05:47.422Z,9.37
2022-12-27T16:08:32.942Z,9.52
2022-12-27T16:11:08.435Z,9.54
2022-12-27T16:13:47.478Z,9.56
2022-12-27T16:16:52.567Z,9.58
2022-12-27T16:20:05.031Z,9.60
2022-12-27T16:22:39.813Z,9.59
2022-12-27T16:25:31.823Z,9.57
2022-12-27T16:28:07.737Z,9.59
2022-12-27T16:30:44.571Z,9.40
2022-12-27T16:33:30.802Z,9.40
2022-12-27T16:36:20.645Z,9.34
2022-12-27T16:39:31.012Z,9.34
2022-12-27T16:42:06.553Z,9.30
2022-12-27T16:44:57.139Z,9.15
2022-12-27T16:48:04.831Z,9.09
2022-12-27T16:50:52.223Z,9.02
2022-12-27T16:53:54.196Z,9.04
2022-12-27T16:56:28.276Z,8.96
2022-12-27T16:59:01.440Z,8.98
2022-12-27T17:01:57.569Z,8.98
2022-12-27T17:04:53.886Z,8.97
2022-12-27T17:07:49.620Z,8.95
2022-12-27T17:10:44.530Z,8.92
2022-12-27T17:13:20.813Z,8.88
2022-12-27T17:16:00.435Z,8.73
2022-12-27T17:18:36.588Z,8.61
2022-12-27T17:21:14.073Z,8.54
2022-12-27T17:23:48.319Z,8.42
2022-12-27T17:26:53.120Z,8.43
2022-12-27T17:29:52.984Z,8.45
2022-12-27T17:32:40.495Z,8.41
2022-12-27T17:35:25.734Z,8.42
2022-12-27T17:38:17.023Z,8.35
2022-12-27T17:41:00.891Z,8.20
2022-12-27T17:44:00.931Z,8.14
2022-12-27T17:46:43.435Z,8.06
2022-12-27T17:49:17.059Z,7.89
2022-12-27T17:52:04.028Z,7.86
2022-12-27T17:54:56.806Z,7.82
2022-12-27T17:57:47.384Z,7.81
2022-12-27T18:00:23.243Z,7.73
2022-12-27T18:02:58.814Z,7.73
2022-12-27T18:05:36.186Z,7.65
2022-12-27T18:08:19.984Z,7.46
2022-12-27T18:10:52.413Z,7.37
2022-12-27T18:13:27.217Z,7.31
2022-12-27T18:16:03.182Z,7.17
2022-12-27T18:18:35.627Z,6.97
2022-12-27T18:21:21.308Z,6.80
2022-12-27T18:23:54.696Z,6.94
2022-12-27T18:26:37.840Z,6.95
2022-12-27T18:29:11.328Z,6.77
2022-12-27T18:31:48.890Z,6.80
2022-12-27T18:34:26.792Z,6.64
2022-12-27T18:37:02.810Z,6.57
2022-12-27T18:39:38.399Z,6.57
2022-12-27T18:42:17.408Z,6.44
2022-12-27T18:44:54.645Z,6.40
2022-12-27T18:47:28.168Z,6.39
2022-12-27T18:50:03.172Z,6.30
2022-12-27T18:52:40.343Z,6.03
2022-12-27T18:55:17.717Z,6.12
2022-12-27T18:58:03.078Z,6.12
2022-12-27T19:00:47.809Z,6.09
2022-12-27T19:03:20.823Z,5.90
2022-12-27T19:06:00.867Z,5.82
2022-12-27T19:08:37.502Z,5.40
2022-12-27T19:11:19.635Z,5.41
2022-12-27T19:13:53.933Z,5.23
2022-12-27T19:16:28.543Z,5.30
2022-12-27T19:19:07.036Z,5.21
2022-12-27T19:21:39.749Z,5.35
2022-12-27T19:24:32.018Z,5.34
2022-12-27T19:27:21.845Z,5.38
2022-12-27T19:29:53.910Z,5.40
2022-12-27T19:32:32.318Z,5.30
2022-12-27T19:35:05.312Z,5.18
2022-12-27T19:37:37.729Z,4.88
2022-12-27T19:40:14.933Z,4.92
2022-12-27T19:42:47.295Z,4.71
2022-12-27T19:45:19.973Z,4.73
2022-12-27T19:47:54.515Z,4.33
2022-12-27T19:50:26.861Z,4.40
2022-12-27T19:52:59.473Z,4.43
2022-12-27T19:55:35.496Z,4.48
2022-12-27T19:58:17.840Z,4.51
2022-12-27T20:00:50.174Z,4.40
2022-12-27T20:03:22.686Z,4.46
2022-12-27T20:06:13.026Z,4.22
2022-12-27T20:08:49.915Z,4.26
2022-12-27T20:11:23.694Z,4.29
2022-12-27T20:13:56.066Z,4.30
2022-12-27T20:16:28.393Z,4.27
2022-12-27T20:19:01.820Z,4.30
2022-12-27T20:21:34.151Z,4.23
2022-12-27T20:24:09.364Z,4.18
2022-12-27T20:26:42.981Z,4.02
2022-12-27T20:29:15.542Z,3.96
2022-12-27T20:31:49.349Z,3.95
2022-12-27T20:34:21.847Z,3.98
2022-12-27T20:36:54.740Z,3.91
2022-12-27T20:39:27.153Z,3.92
2022-12-27T20:42:01.025Z,3.91
2022-12-27T20:44:33.527Z,3.95
2022-12-27T20:47:05.892Z,3.94
2022-12-27T20:49:38.809Z,3.73
2022-12-27T20:52:11.116Z,3.66
2022-12-27T20:54:43.518Z,3.70
2022-12-27T20:57:16.507Z,3.65
2022-12-27T20:59:48.861Z,3.62
2022-12-27T21:02:21.353Z,3.39
2022-12-27T21:04:53.916Z,3.42
2022-12-27T21:07:26.451Z,3.36
2022-12-27T21:09:58.838Z,3.45
2022-12-27T21:12:32.046Z,3.47
2022-12-27T21:15:07.432Z,3.34
2022-12-27T21:17:39.728Z,3.30
2022-12-27T21:20:12.749Z,3.38
2022-12-27T21:22:45.079Z,3.39
2022-12-27T21:25:17.588Z,3.29
2022-12-27T21:27:50.536Z,3.28
2022-12-27T21:30:22.938Z,3.33
2022-12-27T21:32:55.231Z,3.30
2022-12-27T21:35:27.560Z,3.28
2022-12-27T21:37:59.886Z,3.30
2022-12-27T21:40:32.652Z,3.17
2022-12-27T21:43:05.639Z,3.20
2022-12-27T21:45:38.005Z,3.15
2022-12-27T21:48:10.362Z,3.20
2022-12-27T21:50:42.985Z,3.04
2022-12-27T21:53:15.964Z,3.15
2022-12-27T21:55:48.367Z,3.19
2022-12-27T21:58:22.447Z,3.04
2022-12-27T22:01:03.637Z,3.15
2022-12-27T22:03:40.547Z,3.27
2022-12-27T22:06:14.474Z,3.34
2022-12-27T22:08:48.669Z,3.38
2022-12-27T22:11:22.653Z,3.29
2022-12-27T22:13:56.066Z,3.34
2022-12-27T22:16:30.499Z,3.38
2022-12-27T22:19:05.328Z,3.48
2022-12-27T22:21:39.155Z,3.41
2022-12-27T22:24:12.567Z,3.49
2022-12-27T22:26:44.989Z,3.59
2022-12-27T22:29:18.011Z,3.76
2022-12-27T22:31:50.405Z,3.96
2022-12-27T22:34:22.725Z,4.12
2022-12-27T22:36:55.332Z,4.04
2022-12-27T22:39:28.349Z,4.07
2022-12-27T22:42:00.839Z,4.27
2022-12-27T22:44:34.148Z,4.35
2022-12-27T22:47:25.795Z,4.47
2022-12-27T22:49:58.826Z,4.57
2022-12-27T22:52:31.510Z,4.63
2022-12-27T22:55:07.189Z,4.73
2022-12-27T22:57:39.941Z,4.68
2022-12-27T23:00:14.393Z,4.84
2022-12-27T23:02:46.907Z,4.81
2022-12-27T23:05:19.266Z,4.91
2022-12-27T23:08:04.124Z,5.03
2022-12-27T23:10:39.123Z,5.06
2022-12-27T23:13:11.469Z,5.12
2022-12-27T23:15:44.450Z,5.18
2022-12-27T23:18:16.824Z,5.18
2022-12-27T23:21:19.232Z,5.23
2022-12-27T23:23:41.479Z,5.31
2022-12-27T23:26:20.408Z,5.38
2022-12-27T23:28:52.971Z,5.43
2022-12-27T23:31:26.445Z,5.46
2022-12-27T23:33:58.870Z,5.50
2022-12-27T23:36:31.667Z,5.51
2022-12-27T23:39:04.367Z,5.57
2022-12-27T23:41:36.696Z,5.58
2022-12-27T23:44:09.079Z,5.61
2022-12-27T23:46:42.134Z,5.63
2022-12-27T23:49:15.320Z,5.70
2022-12-27T23:51:47.608Z,5.74
2022-12-27T23:54:20.154Z,5.71
2022-12-27T23:56:52.476Z,5.52
2022-12-27T23:59:24.845Z,5.53
